createdAt,value
2018-11-26T00:00:21.254Z,990.93
2018-11-26T00:01:21.221Z,990.90
2018-11-26T00:02:21.203Z,990.88
2018-11-26T00:03:21.198Z,990.90
2018-11-26T00:04:21.187Z,990.90
2018-11-26T00:05:21.190Z,990.86
2018-11-26T00:06:21.157Z,990.88
2018-11-26T00:07:21.149Z,990.86
2018-11-26T00:08:21.127Z,990.87
2018-11-26T00:09:21.128Z,990.88
2018-11-26T00:10:21.132Z,990.85
2018-11-26T00:11:21.132Z,990.81
2018-11-26T00:12:21.089Z,990.82
2018-11-26T00:13:21.080Z,990.77
2018-11-26T00:14:21.086Z,990.78
2018-11-26T00:15:21.073Z,990.79
2018-11-26T00:16:21.043Z,990.81
2018-11-26T00:17:21.026Z,990.84
2018-11-26T00:18:21.059Z,990.84
2018-11-26T00:19:21.006Z,990.80
2018-11-26T00:20:21.016Z,990.83
2018-11-26T00:21:20.981Z,990.84
2018-11-26T00:22:20.980Z,990.86
2018-11-26T00:23:20.963Z,990.88
2018-11-26T00:24:20.945Z,990.91
2018-11-26T00:25:20.956Z,990.89
2018-11-26T00:26:20.932Z,990.88
2018-11-26T00:27:20.916Z,990.88
2018-11-26T00:28:20.897Z,990.91
2018-11-26T00:29:20.894Z,990.87
2018-11-26T00:30:20.973Z,990.89
2018-11-26T00:31:20.896Z,990.83
2018-11-26T00:32:20.868Z,990.82
2018-11-26T00:33:20.894Z,990.78
2018-11-26T00:34:20.839Z,990.78
2018-11-26T00:35:20.838Z,990.78
2018-11-26T00:36:20.832Z,990.74
2018-11-26T00:37:20.813Z,990.73
2018-11-26T00:38:20.793Z,990.75
2018-11-26T00:39:20.776Z,990.72
2018-11-26T00:40:20.820Z,990.70
2018-11-26T00:41:20.775Z,990.70
2018-11-26T00:42:20.751Z,990.68
2018-11-26T00:43:20.737Z,990.67
2018-11-26T00:44:20.722Z,990.64
2018-11-26T00:45:20.727Z,990.63
2018-11-26T00:46:20.855Z,990.64
2018-11-26T00:47:20.687Z,990.57
2018-11-26T00:48:20.677Z,990.56
2018-11-26T00:49:20.664Z,990.57
2018-11-26T00:50:20.691Z,990.60
2018-11-26T00:51:20.669Z,990.53
2018-11-26T00:52:20.644Z,990.54
2018-11-26T00:53:20.617Z,990.51
2018-11-26T00:54:20.615Z,990.54
2018-11-26T00:55:20.601Z,990.49
2018-11-26T00:56:20.658Z,990.54
2018-11-26T00:57:20.575Z,990.54
2018-11-26T00:58:20.571Z,990.52
2018-11-26T00:59:20.556Z,990.51
2018-11-26T01:00:20.564Z,990.51
2018-11-26T01:01:20.557Z,990.52
2018-11-26T01:02:20.518Z,990.50
2018-11-26T01:03:20.500Z,990.52
2018-11-26T01:04:20.495Z,990.53
2018-11-26T01:05:20.510Z,990.53
2018-11-26T01:06:20.983Z,990.55
2018-11-26T01:07:20.458Z,990.55
2018-11-26T01:08:20.504Z,990.53
2018-11-26T01:09:20.454Z,990.52
2018-11-26T01:10:20.461Z,990.54
2018-11-26T01:11:20.439Z,990.57
2018-11-26T01:12:20.412Z,990.60
2018-11-26T01:13:20.400Z,990.57
2018-11-26T01:14:20.382Z,990.54
2018-11-26T01:15:20.370Z,990.61
2018-11-26T01:16:20.398Z,990.63
2018-11-26T01:17:20.360Z,990.61
2018-11-26T01:18:20.337Z,990.59
2018-11-26T01:19:20.377Z,990.62
2018-11-26T01:20:20.319Z,990.62
2018-11-26T01:21:20.327Z,990.64
2018-11-26T01:22:20.315Z,990.69
2018-11-26T01:23:20.280Z,990.67
2018-11-26T01:24:20.280Z,990.67
2018-11-26T01:25:20.256Z,990.68
2018-11-26T01:26:20.267Z,990.66
2018-11-26T01:27:20.278Z,990.66
2018-11-26T01:28:20.234Z,990.68
2018-11-26T01:29:20.212Z,990.69
2018-11-26T01:30:20.211Z,990.67
2018-11-26T01:31:20.218Z,990.65
2018-11-26T01:32:20.173Z,990.70
2018-11-26T01:33:20.201Z,990.71
2018-11-26T01:34:20.153Z,990.70
2018-11-26T01:35:20.145Z,990.71
2018-11-26T01:36:20.164Z,990.68
2018-11-26T01:37:20.146Z,990.72
2018-11-26T01:38:20.116Z,990.72
2018-11-26T01:39:20.097Z,990.70
2018-11-26T01:40:20.088Z,990.73
2018-11-26T01:41:20.101Z,990.72
2018-11-26T01:42:20.085Z,990.74
2018-11-26T01:43:20.051Z,990.75
2018-11-26T01:44:20.042Z,990.72
2018-11-26T01:45:20.033Z,990.71
2018-11-26T01:46:20.057Z,990.71
2018-11-26T01:47:20.008Z,990.71
2018-11-26T01:48:20.027Z,990.77
2018-11-26T01:49:19.992Z,990.83
2018-11-26T01:50:19.985Z,990.82
2018-11-26T01:51:19.984Z,990.80
2018-11-26T01:52:19.982Z,990.85
2018-11-26T01:53:19.940Z,990.83
2018-11-26T01:54:19.928Z,990.81
2018-11-26T01:55:19.939Z,990.84
2018-11-26T01:56:19.928Z,990.81
2018-11-26T01:57:19.897Z,990.77
2018-11-26T01:58:19.924Z,990.80
2018-11-26T01:59:19.899Z,990.77
2018-11-26T02:00:19.856Z,990.81
2018-11-26T02:01:19.875Z,990.81
2018-11-26T02:02:19.843Z,990.79
2018-11-26T02:03:19.825Z,990.80
2018-11-26T02:04:19.842Z,990.81
2018-11-26T02:05:19.803Z,990.81
2018-11-26T02:06:19.819Z,990.80
2018-11-26T02:07:19.776Z,990.75
2018-11-26T02:08:19.767Z,990.77
2018-11-26T02:09:19.782Z,990.76
2018-11-26T02:10:19.748Z,990.81
2018-11-26T02:11:19.759Z,990.75
2018-11-26T02:12:19.728Z,990.79
2018-11-26T02:13:19.766Z,990.80
2018-11-26T02:14:19.713Z,990.78
2018-11-26T02:15:19.686Z,990.77
2018-11-26T02:16:19.703Z,990.79
2018-11-26T02:17:19.680Z,990.78
2018-11-26T02:18:19.741Z,990.85
2018-11-26T02:19:19.642Z,990.84
2018-11-26T02:20:19.635Z,990.79
2018-11-26T02:21:19.650Z,990.81
2018-11-26T02:22:19.611Z,990.80
2018-11-26T02:23:19.604Z,990.82
2018-11-26T02:24:19.595Z,990.82
2018-11-26T02:25:19.626Z,990.84
2018-11-26T02:26:19.597Z,990.79
2018-11-26T02:27:20.459Z,990.76
2018-11-26T02:28:19.543Z,990.74
2018-11-26T02:29:19.531Z,990.72
2018-11-26T02:30:19.519Z,990.73
2018-11-26T02:31:19.542Z,990.73
2018-11-26T02:32:19.538Z,990.76
2018-11-26T02:33:19.490Z,990.71
2018-11-26T02:34:19.488Z,990.72
2018-11-26T02:35:19.468Z,990.77
2018-11-26T02:36:19.555Z,990.76
2018-11-26T02:37:19.471Z,990.76
2018-11-26T02:38:19.449Z,990.76
2018-11-26T02:39:19.417Z,990.74
2018-11-26T02:40:19.418Z,990.73
2018-11-26T02:41:19.402Z,990.73
2018-11-26T02:42:19.414Z,990.71
2018-11-26T02:43:19.376Z,990.74
2018-11-26T02:44:19.406Z,990.75
2018-11-26T02:45:19.357Z,990.77
2018-11-26T02:46:19.346Z,990.79
2018-11-26T02:47:19.369Z,990.79
2018-11-26T02:48:19.314Z,990.79
2018-11-26T02:49:19.307Z,990.77
2018-11-26T02:50:19.347Z,990.82
2018-11-26T02:51:19.280Z,990.81
2018-11-26T02:52:19.300Z,990.81
2018-11-26T02:53:19.265Z,990.78
2018-11-26T02:54:19.265Z,990.78
2018-11-26T02:55:19.249Z,990.78
2018-11-26T02:56:19.262Z,990.79
2018-11-26T02:57:19.241Z,990.85
2018-11-26T02:58:19.231Z,990.79
2018-11-26T02:59:19.189Z,990.82
2018-11-26T03:00:19.179Z,990.78
2018-11-26T03:01:19.226Z,990.75
2018-11-26T03:02:19.187Z,990.81
2018-11-26T03:03:19.186Z,990.81
2018-11-26T03:04:19.137Z,990.77
2018-11-26T03:05:19.136Z,990.74
2018-11-26T03:06:19.153Z,990.78
2018-11-26T03:07:19.130Z,990.80
2018-11-26T03:08:19.098Z,990.79
2018-11-26T03:09:19.104Z,990.76
2018-11-26T03:10:19.071Z,990.75
2018-11-26T03:11:19.081Z,990.76
2018-11-26T03:12:19.074Z,990.75
2018-11-26T03:13:19.040Z,990.72
2018-11-26T03:14:19.055Z,990.72
2018-11-26T03:15:19.017Z,990.74
2018-11-26T03:16:19.008Z,990.72
2018-11-26T03:17:19.022Z,990.75
2018-11-26T03:18:18.979Z,990.73
2018-11-26T03:19:18.980Z,990.71
2018-11-26T03:20:18.955Z,990.73
2018-11-26T03:21:18.956Z,990.75
2018-11-26T03:22:18.956Z,990.69
2018-11-26T03:23:18.968Z,990.72
2018-11-26T03:24:18.919Z,990.71
2018-11-26T03:25:18.903Z,990.71
2018-11-26T03:26:18.888Z,990.70
2018-11-26T03:27:18.930Z,990.71
2018-11-26T03:28:18.870Z,990.70
2018-11-26T03:29:18.858Z,990.71
2018-11-26T03:30:18.862Z,990.69
2018-11-26T03:31:18.870Z,990.69
2018-11-26T03:32:18.843Z,990.64
2018-11-26T03:33:18.822Z,990.70
2018-11-26T03:34:18.797Z,990.68
2018-11-26T03:35:18.813Z,990.67
2018-11-26T03:36:18.778Z,990.67
2018-11-26T03:37:18.791Z,990.63
2018-11-26T03:38:18.755Z,990.65
2018-11-26T03:39:18.748Z,990.66
2018-11-26T03:40:18.739Z,990.66
2018-11-26T03:41:18.723Z,990.65
2018-11-26T03:42:18.734Z,990.62
2018-11-26T03:43:18.704Z,990.64
2018-11-26T03:44:18.689Z,990.62
2018-11-26T03:45:18.687Z,990.66
2018-11-26T03:46:18.668Z,990.64
2018-11-26T03:47:18.681Z,990.64
2018-11-26T03:48:18.649Z,990.63
2018-11-26T03:49:18.641Z,990.65
2018-11-26T03:50:18.620Z,990.66
2018-11-26T03:51:18.619Z,990.64
2018-11-26T03:52:18.618Z,990.69
2018-11-26T03:53:18.597Z,990.69
2018-11-26T03:54:18.570Z,990.66
2018-11-26T03:55:18.633Z,990.68
2018-11-26T03:56:18.550Z,990.62
2018-11-26T03:57:18.568Z,990.70
2018-11-26T03:58:18.525Z,990.71
2018-11-26T03:59:18.529Z,990.69
2018-11-26T04:00:18.509Z,990.69
2018-11-26T04:01:18.497Z,990.65
2018-11-26T04:02:18.511Z,990.69
2018-11-26T04:03:18.471Z,990.68
2018-11-26T04:04:18.465Z,990.70
2018-11-26T04:05:18.458Z,990.66
2018-11-26T04:06:18.492Z,990.67
2018-11-26T04:07:18.477Z,990.67
2018-11-26T04:08:18.430Z,990.65
2018-11-26T04:09:18.405Z,990.69
2018-11-26T04:10:18.396Z,990.73
2018-11-26T04:11:18.391Z,990.70
2018-11-26T04:12:18.392Z,990.72
2018-11-26T04:13:18.360Z,990.74
2018-11-26T04:14:18.357Z,990.71
2018-11-26T04:15:18.338Z,990.76
2018-11-26T04:16:18.388Z,990.70
2018-11-26T04:17:18.345Z,990.72
2018-11-26T04:18:18.311Z,990.70
2018-11-26T04:19:18.296Z,990.70
2018-11-26T04:20:18.284Z,990.72
2018-11-26T04:21:18.325Z,990.75
2018-11-26T04:22:18.294Z,990.70
2018-11-26T04:23:18.242Z,990.71
2018-11-26T04:24:18.238Z,990.69
2018-11-26T04:25:18.225Z,990.71
2018-11-26T04:26:18.214Z,990.68
2018-11-26T04:27:18.263Z,990.68
2018-11-26T04:28:18.327Z,990.66
2018-11-26T04:29:18.174Z,990.64
2018-11-26T04:30:18.166Z,990.66
2018-11-26T04:31:18.187Z,990.64
2018-11-26T04:32:18.167Z,990.59
2018-11-26T04:33:18.161Z,990.60
2018-11-26T04:34:18.119Z,990.59
2018-11-26T04:35:18.116Z,990.53
2018-11-26T04:36:18.134Z,990.53
2018-11-26T04:37:18.128Z,990.55
2018-11-26T04:38:18.100Z,990.56
2018-11-26T04:39:18.085Z,990.53
2018-11-26T04:40:18.064Z,990.50
2018-11-26T04:41:18.079Z,990.51
2018-11-26T04:42:18.036Z,990.52
2018-11-26T04:43:18.048Z,990.50
2018-11-26T04:44:18.040Z,990.52
2018-11-26T04:45:18.029Z,990.56
2018-11-26T04:46:17.987Z,990.57
2018-11-26T04:47:17.980Z,990.53
2018-11-26T04:48:18.016Z,990.56
2018-11-26T04:49:17.950Z,990.52
2018-11-26T04:50:17.940Z,990.50
2018-11-26T04:51:17.934Z,990.50
2018-11-26T04:52:17.922Z,990.53
2018-11-26T04:53:17.933Z,990.49
2018-11-26T04:54:17.904Z,990.51
2018-11-26T04:55:17.964Z,990.48
2018-11-26T04:56:17.881Z,990.49
2018-11-26T04:57:17.885Z,990.51
2018-11-26T04:58:17.877Z,990.45
2018-11-26T04:59:17.842Z,990.46
2018-11-26T05:00:17.871Z,990.47
2018-11-26T05:01:17.830Z,990.46
2018-11-26T05:02:17.807Z,990.50
2018-11-26T05:03:17.833Z,990.47
2018-11-26T05:04:17.813Z,990.43
2018-11-26T05:05:17.778Z,990.46
2018-11-26T05:06:17.768Z,990.44
2018-11-26T05:07:17.755Z,990.38
2018-11-26T05:08:17.768Z,990.35
2018-11-26T05:09:17.730Z,990.36
2018-11-26T05:10:17.719Z,990.36
2018-11-26T05:11:17.708Z,990.35
2018-11-26T05:12:17.700Z,990.36
2018-11-26T05:13:17.712Z,990.38
2018-11-26T05:14:17.674Z,990.33
2018-11-26T05:15:17.707Z,990.34
2018-11-26T05:16:17.701Z,990.34
2018-11-26T05:17:17.649Z,990.37
2018-11-26T05:18:17.661Z,990.39
2018-11-26T05:19:17.620Z,990.39
2018-11-26T05:20:17.604Z,990.37
2018-11-26T05:21:17.594Z,990.36
2018-11-26T05:22:17.593Z,990.38
2018-11-26T05:23:17.603Z,990.46
2018-11-26T05:24:17.559Z,990.40
2018-11-26T05:25:17.555Z,990.40
2018-11-26T05:26:17.564Z,990.38
2018-11-26T05:27:17.528Z,990.45
2018-11-26T05:28:17.549Z,990.41
2018-11-26T05:29:17.500Z,990.41
2018-11-26T05:30:17.497Z,990.40
2018-11-26T05:31:17.480Z,990.40
2018-11-26T05:32:17.519Z,990.43
2018-11-26T05:33:17.484Z,990.37
2018-11-26T05:34:17.454Z,990.37
2018-11-26T05:35:17.438Z,990.36
2018-11-26T05:36:17.433Z,990.40
2018-11-26T05:37:17.421Z,990.44
2018-11-26T05:38:17.433Z,990.43
2018-11-26T05:39:17.399Z,990.40
2018-11-26T05:40:17.379Z,990.42
2018-11-26T05:41:17.385Z,990.47
2018-11-26T05:42:17.395Z,990.47
2018-11-26T05:43:17.386Z,990.46
2018-11-26T05:44:17.341Z,990.50
2018-11-26T05:45:17.331Z,990.52
2018-11-26T05:46:17.315Z,990.50
2018-11-26T05:47:17.295Z,990.49
2018-11-26T05:48:17.312Z,990.53
2018-11-26T05:49:17.275Z,990.53
2018-11-26T05:50:17.311Z,990.49
2018-11-26T05:51:17.260Z,990.49
2018-11-26T05:52:17.239Z,990.51
2018-11-26T05:53:17.265Z,990.51
2018-11-26T05:54:17.277Z,990.52
2018-11-26T05:55:17.226Z,990.54
2018-11-26T05:56:17.205Z,990.56
2018-11-26T05:57:17.208Z,990.57
2018-11-26T05:58:17.212Z,990.55
2018-11-26T05:59:17.162Z,990.56
2018-11-26T06:00:17.151Z,990.55
2018-11-26T06:01:17.153Z,990.59
2018-11-26T06:02:17.136Z,990.63
2018-11-26T06:03:17.146Z,990.61
2018-11-26T06:04:17.109Z,990.62
2018-11-26T06:05:17.094Z,990.66
2018-11-26T06:06:17.088Z,990.66
2018-11-26T06:07:17.080Z,990.67
2018-11-26T06:08:17.132Z,990.68
2018-11-26T06:09:17.055Z,990.68
2018-11-26T06:10:17.040Z,990.73
2018-11-26T06:11:17.037Z,990.71
2018-11-26T06:12:17.024Z,990.73
2018-11-26T06:13:17.055Z,990.76
2018-11-26T06:14:17.007Z,990.74
2018-11-26T06:15:16.983Z,990.82
2018-11-26T06:16:16.971Z,990.78
2018-11-26T06:17:16.960Z,990.78
2018-11-26T06:18:16.984Z,990.79
2018-11-26T06:19:16.971Z,990.77
2018-11-26T06:20:16.932Z,990.77
2018-11-26T06:21:16.924Z,990.79
2018-11-26T06:22:16.948Z,990.86
2018-11-26T06:23:16.907Z,990.80
2018-11-26T06:24:16.906Z,990.78
2018-11-26T06:25:16.878Z,990.77
2018-11-26T06:26:16.864Z,990.77
2018-11-26T06:27:16.847Z,990.75
2018-11-26T06:28:16.878Z,990.74
2018-11-26T06:29:16.857Z,990.81
2018-11-26T06:30:16.812Z,990.76
2018-11-26T06:31:16.810Z,990.81
2018-11-26T06:32:16.793Z,990.80
2018-11-26T06:33:16.832Z,990.79
2018-11-26T06:34:16.795Z,990.83
2018-11-26T06:35:16.765Z,990.84
2018-11-26T06:36:16.748Z,990.87
2018-11-26T06:37:16.739Z,990.89
2018-11-26T06:38:16.752Z,990.93
2018-11-26T06:39:16.742Z,990.92
2018-11-26T06:40:16.703Z,990.91
2018-11-26T06:41:16.692Z,990.91
2018-11-26T06:42:16.692Z,990.93
2018-11-26T06:43:17.440Z,990.91
2018-11-26T06:44:16.713Z,990.94
2018-11-26T06:45:16.650Z,990.95
2018-11-26T06:46:16.644Z,990.98
2018-11-26T06:47:16.624Z,991.00
2018-11-26T06:48:16.644Z,990.98
2018-11-26T06:49:16.623Z,991.00
2018-11-26T06:50:16.597Z,991.05
2018-11-26T06:51:16.586Z,991.01
2018-11-26T06:52:16.567Z,991.03
2018-11-26T06:53:16.585Z,991.01
2018-11-26T06:54:16.566Z,991.02
2018-11-26T06:55:16.535Z,991.06
2018-11-26T06:56:16.526Z,991.07
2018-11-26T06:57:16.519Z,991.12
2018-11-26T06:58:16.495Z,991.10
2018-11-26T06:59:16.550Z,991.10
2018-11-26T07:00:16.478Z,991.08
2018-11-26T07:01:16.472Z,991.14
2018-11-26T07:02:16.516Z,991.13
2018-11-26T07:03:16.444Z,991.11
2018-11-26T07:04:16.479Z,991.13
2018-11-26T07:05:16.442Z,991.13
2018-11-26T07:06:16.406Z,991.17
2018-11-26T07:07:16.400Z,991.15
2018-11-26T07:08:16.419Z,991.18
2018-11-26T07:09:16.407Z,991.18
2018-11-26T07:10:16.361Z,991.15
2018-11-26T07:11:16.355Z,991.11
2018-11-26T07:12:16.567Z,991.16
2018-11-26T07:13:16.331Z,991.16
2018-11-26T07:14:16.341Z,991.14
2018-11-26T07:15:16.349Z,991.15
2018-11-26T07:16:16.298Z,991.19
2018-11-26T07:17:16.283Z,991.17
2018-11-26T07:18:16.286Z,991.17
2018-11-26T07:19:16.292Z,991.24
2018-11-26T07:20:16.250Z,991.19
2018-11-26T07:21:16.244Z,991.23
2018-11-26T07:22:16.226Z,991.24
2018-11-26T07:23:16.236Z,991.25
2018-11-26T07:24:16.231Z,991.26
2018-11-26T07:25:16.202Z,991.29
2018-11-26T07:26:16.184Z,991.31
2018-11-26T07:27:16.170Z,991.27
2018-11-26T07:28:16.158Z,991.29
2018-11-26T07:29:16.240Z,991.28
2018-11-26T07:30:16.138Z,991.29
2018-11-26T07:31:16.128Z,991.30
2018-11-26T07:32:16.116Z,991.35
2018-11-26T07:33:16.104Z,991.36
2018-11-26T07:34:16.115Z,991.34
2018-11-26T07:35:16.098Z,991.34
2018-11-26T07:36:16.067Z,991.42
2018-11-26T07:37:16.057Z,991.38
2018-11-26T07:38:16.050Z,991.35
2018-11-26T07:39:16.062Z,991.47
2018-11-26T07:40:16.032Z,991.40
2018-11-26T07:41:16.015Z,991.41
2018-11-26T07:42:16.016Z,991.49
2018-11-26T07:43:16.001Z,991.47
2018-11-26T07:44:16.003Z,991.43
2018-11-26T07:45:15.976Z,991.46
2018-11-26T07:46:15.964Z,991.48
2018-11-26T07:47:15.948Z,991.50
2018-11-26T07:48:15.933Z,991.48
2018-11-26T07:49:15.978Z,991.48
2018-11-26T07:50:15.917Z,991.52
2018-11-26T07:51:15.906Z,991.48
2018-11-26T07:52:15.916Z,991.50
2018-11-26T07:53:15.880Z,991.46
2018-11-26T07:54:15.948Z,991.49
2018-11-26T07:55:15.867Z,991.50
2018-11-26T07:56:15.852Z,991.51
2018-11-26T07:57:15.840Z,991.53
2018-11-26T07:58:15.823Z,991.55
2018-11-26T07:59:15.834Z,991.55
2018-11-26T08:00:15.832Z,991.57
2018-11-26T08:01:15.822Z,991.57
2018-11-26T08:02:15.779Z,991.55
2018-11-26T08:03:15.791Z,991.54
2018-11-26T08:04:15.753Z,991.59
2018-11-26T08:05:15.776Z,991.56
2018-11-26T08:06:15.770Z,991.56
2018-11-26T08:07:15.721Z,991.60
2018-11-26T08:08:15.735Z,991.61
2018-11-26T08:09:15.729Z,991.60
2018-11-26T08:10:15.715Z,991.63
2018-11-26T08:11:15.677Z,991.66
2018-11-26T08:12:15.668Z,991.66
2018-11-26T08:13:15.694Z,991.66
2018-11-26T08:14:15.894Z,991.67
2018-11-26T08:15:15.631Z,991.69
2018-11-26T08:16:15.712Z,991.67
2018-11-26T08:17:16.598Z,991.68
2018-11-26T08:18:15.596Z,991.72
2018-11-26T08:19:15.608Z,991.71
2018-11-26T08:20:15.832Z,991.77
2018-11-26T08:21:15.563Z,991.74
2018-11-26T08:22:16.632Z,991.76
2018-11-26T08:23:15.555Z,991.78
2018-11-26T08:24:15.546Z,991.78
2018-11-26T08:25:15.565Z,991.85
2018-11-26T08:26:15.512Z,991.83
2018-11-26T08:27:15.580Z,991.86
2018-11-26T08:28:15.510Z,991.84
2018-11-26T08:29:15.471Z,991.90
2018-11-26T08:30:17.308Z,991.87
2018-11-26T08:31:15.476Z,991.89
2018-11-26T08:32:15.478Z,991.93
2018-11-26T08:33:15.428Z,991.92
2018-11-26T08:34:15.419Z,991.93
2018-11-26T08:35:15.508Z,991.98
2018-11-26T08:36:15.412Z,991.94
2018-11-26T08:37:15.382Z,992.00
2018-11-26T08:38:15.378Z,992.01
2018-11-26T08:39:15.398Z,992.01
2018-11-26T08:40:15.388Z,991.99
2018-11-26T08:41:15.344Z,991.93
2018-11-26T08:42:15.367Z,991.96
2018-11-26T08:43:15.325Z,992.00
2018-11-26T08:44:15.303Z,991.99
2018-11-26T08:45:15.363Z,992.02
2018-11-26T08:46:15.303Z,992.03
2018-11-26T08:47:15.270Z,992.05
2018-11-26T08:48:15.334Z,992.06
2018-11-26T08:49:15.252Z,992.06
2018-11-26T08:50:15.287Z,992.10
2018-11-26T08:51:15.248Z,992.10
2018-11-26T08:52:15.214Z,992.09
2018-11-26T08:53:15.225Z,992.11
2018-11-26T08:54:15.201Z,992.13
2018-11-26T08:55:15.218Z,992.13
2018-11-26T08:56:15.982Z,992.17
2018-11-26T08:57:15.180Z,992.16
2018-11-26T08:58:15.160Z,992.16
2018-11-26T08:59:15.140Z,992.16
2018-11-26T09:00:15.203Z,992.22
2018-11-26T09:01:15.146Z,992.19
2018-11-26T09:02:15.112Z,992.19
2018-11-26T09:03:15.113Z,992.25
2018-11-26T09:04:15.083Z,992.24
2018-11-26T09:05:24.000Z,992.27
2018-11-26T09:06:16.068Z,992.22
2018-11-26T09:07:15.053Z,992.31
2018-11-26T09:08:15.240Z,992.29
2018-11-26T09:09:15.173Z,992.27
2018-11-26T09:10:15.019Z,992.27
2018-11-26T09:11:16.270Z,992.30
2018-11-26T09:12:15.029Z,992.31
2018-11-26T09:13:14.987Z,992.29
2018-11-26T09:14:14.976Z,992.29
2018-11-26T09:15:14.981Z,992.31
2018-11-26T09:16:14.963Z,992.38
2018-11-26T09:17:14.938Z,992.41
2018-11-26T09:18:14.939Z,992.39
2018-11-26T09:19:14.915Z,992.40
2018-11-26T09:20:14.930Z,992.40
2018-11-26T09:21:14.960Z,992.44
2018-11-26T09:22:14.885Z,992.46
2018-11-26T09:23:14.871Z,992.50
2018-11-26T09:24:14.858Z,992.50
2018-11-26T09:25:14.871Z,992.53
2018-11-26T09:26:14.861Z,992.54
2018-11-26T09:27:14.824Z,992.58
2018-11-26T09:28:14.815Z,992.57
2018-11-26T09:29:14.804Z,992.61
2018-11-26T09:30:14.821Z,992.61
2018-11-26T09:31:14.782Z,992.60
2018-11-26T09:32:14.788Z,992.58
2018-11-26T09:33:14.762Z,992.55
2018-11-26T09:34:14.754Z,992.57
2018-11-26T09:35:14.763Z,992.64
2018-11-26T09:36:14.757Z,992.61
2018-11-26T09:37:14.713Z,992.61
2018-11-26T09:38:14.710Z,992.60
2018-11-26T09:39:14.766Z,992.61
2018-11-26T09:40:14.683Z,992.58
2018-11-26T09:41:14.813Z,992.61
2018-11-26T09:42:14.659Z,992.63
2018-11-26T09:43:14.733Z,992.67
2018-11-26T09:44:14.640Z,992.62
2018-11-26T09:45:14.632Z,992.64
2018-11-26T09:46:14.698Z,992.60
2018-11-26T09:47:14.605Z,992.68
2018-11-26T09:48:14.592Z,992.67
2018-11-26T09:49:14.582Z,992.67
2018-11-26T09:50:14.583Z,992.68
2018-11-26T09:51:14.870Z,992.66
2018-11-26T09:52:14.552Z,992.69
2018-11-26T09:53:14.539Z,992.70
2018-11-26T09:54:14.532Z,992.69
2018-11-26T09:55:14.514Z,992.72
2018-11-26T09:56:14.526Z,992.69
2018-11-26T09:57:14.510Z,992.70
2018-11-26T09:58:14.480Z,992.71
2018-11-26T09:59:14.471Z,992.72
2018-11-26T10:00:14.460Z,992.70
2018-11-26T10:01:14.472Z,992.70
2018-11-26T10:02:14.439Z,992.68
2018-11-26T10:03:14.452Z,992.70
2018-11-26T10:04:14.414Z,992.66
2018-11-26T10:05:14.407Z,992.70
2018-11-26T10:06:14.417Z,992.70
2018-11-26T10:07:14.397Z,992.68
2018-11-26T10:08:14.375Z,992.74
2018-11-26T10:09:14.360Z,992.70
2018-11-26T10:10:14.391Z,992.71
2018-11-26T10:11:14.364Z,992.73
2018-11-26T10:12:14.331Z,992.69
2018-11-26T10:13:14.325Z,992.76
2018-11-26T10:14:14.311Z,992.76
2018-11-26T10:15:14.291Z,992.74
2018-11-26T10:16:14.327Z,992.76
2018-11-26T10:17:14.273Z,992.76
2018-11-26T10:18:14.263Z,992.77
2018-11-26T10:19:14.247Z,992.76
2018-11-26T10:20:14.241Z,992.75
2018-11-26T10:21:14.251Z,992.77
2018-11-26T10:22:14.241Z,992.76
2018-11-26T10:23:14.203Z,992.73
2018-11-26T10:24:14.193Z,992.78
2018-11-26T10:25:14.182Z,992.77
2018-11-26T10:26:14.202Z,992.74
2018-11-26T10:27:14.171Z,992.72
2018-11-26T10:28:14.166Z,992.70
2018-11-26T10:29:14.139Z,992.77
2018-11-26T10:30:14.133Z,992.74
2018-11-26T10:31:14.140Z,992.70
2018-11-26T10:32:14.460Z,992.69
2018-11-26T10:33:14.903Z,992.70
2018-11-26T10:34:14.783Z,992.67
2018-11-26T10:35:14.073Z,992.68
2018-11-26T10:36:14.092Z,992.72
2018-11-26T10:37:14.051Z,992.66
2018-11-26T10:38:14.073Z,992.68
2018-11-26T10:39:14.036Z,992.67
2018-11-26T10:40:14.051Z,992.68
2018-11-26T10:41:14.067Z,992.66
2018-11-26T10:42:16.749Z,992.69
2018-11-26T10:43:13.983Z,992.66
2018-11-26T10:44:14.168Z,992.70
2018-11-26T10:45:13.988Z,992.69
2018-11-26T10:46:13.975Z,992.67
2018-11-26T10:47:13.935Z,992.67
2018-11-26T10:48:13.944Z,992.65
2018-11-26T10:49:13.923Z,992.66
2018-11-26T10:50:13.919Z,992.64
2018-11-26T10:51:13.936Z,992.66
2018-11-26T10:52:13.909Z,992.69
2018-11-26T10:53:13.892Z,992.69
2018-11-26T10:54:13.880Z,992.74
2018-11-26T10:55:13.853Z,992.72
2018-11-26T10:56:13.841Z,992.70
2018-11-26T10:57:13.875Z,992.73
2018-11-26T10:58:13.816Z,992.72
2018-11-26T10:59:13.806Z,992.73
2018-11-26T11:00:13.845Z,992.74
2018-11-26T11:01:13.816Z,992.71
2018-11-26T11:02:13.798Z,992.71
2018-11-26T11:03:13.762Z,992.73
2018-11-26T11:04:13.780Z,992.76
2018-11-26T11:05:13.761Z,992.73
2018-11-26T11:06:13.769Z,992.80
2018-11-26T11:07:13.743Z,992.75
2018-11-26T11:08:13.714Z,992.77
2018-11-26T11:09:13.699Z,992.78
2018-11-26T11:10:13.724Z,992.80
2018-11-26T11:11:13.692Z,992.79
2018-11-26T11:12:13.684Z,992.75
2018-11-26T11:13:13.651Z,992.76
2018-11-26T11:14:13.639Z,992.75
2018-11-26T11:15:13.631Z,992.75
2018-11-26T11:16:13.644Z,992.74
2018-11-26T11:17:13.632Z,992.75
2018-11-26T11:18:13.601Z,992.78
2018-11-26T11:19:13.614Z,992.81
2018-11-26T11:20:13.573Z,992.78
2018-11-26T11:21:13.875Z,992.80
2018-11-26T11:22:13.566Z,992.82
2018-11-26T11:23:13.544Z,992.82
2018-11-26T11:24:13.538Z,992.85
2018-11-26T11:25:13.519Z,992.87
2018-11-26T11:26:13.544Z,992.87
2018-11-26T11:27:13.498Z,992.85
2018-11-26T11:28:13.486Z,992.86
2018-11-26T11:29:13.469Z,992.86
2018-11-26T11:30:13.471Z,992.83
2018-11-26T11:31:13.449Z,992.85
2018-11-26T11:32:13.499Z,992.86
2018-11-26T11:33:42.792Z,992.86
2018-11-26T11:34:42.961Z,992.85
2018-11-26T11:35:42.665Z,992.91
2018-11-26T11:36:42.974Z,992.91
2018-11-26T11:37:43.035Z,992.87
2018-11-26T11:38:42.511Z,992.85
2018-11-26T11:39:42.524Z,992.85
2018-11-26T11:40:42.540Z,992.84
2018-11-26T11:41:42.533Z,992.87
2018-11-26T11:42:42.491Z,992.86
2018-11-26T11:43:42.451Z,992.84
2018-11-26T11:44:42.443Z,992.89
2018-11-26T11:45:42.438Z,992.86
2018-11-26T11:46:45.483Z,992.86
2018-11-26T11:50:55.554Z,992.84
2018-11-26T11:51:53.952Z,992.86
2018-11-26T11:52:53.911Z,992.82
2018-11-26T11:53:53.938Z,992.84
2018-11-26T11:54:53.892Z,992.85
2018-11-26T11:55:53.883Z,992.84
2018-11-26T11:56:53.923Z,992.80
2018-11-26T11:57:53.859Z,992.80
2018-11-26T11:58:53.843Z,992.79
2018-11-26T11:59:53.839Z,992.79
2018-11-26T12:00:53.828Z,992.81
2018-11-26T12:01:53.883Z,992.78
2018-11-26T12:02:53.829Z,992.83
2018-11-26T12:03:53.787Z,992.83
2018-11-26T12:04:53.777Z,992.81
2018-11-26T12:05:53.770Z,992.80
2018-11-26T12:06:53.755Z,992.81
2018-11-26T12:07:53.789Z,992.79
2018-11-26T12:08:53.737Z,992.76
2018-11-26T12:09:53.730Z,992.74
2018-11-26T12:10:53.714Z,992.74
2018-11-26T12:11:53.709Z,992.76
2018-11-26T12:12:53.719Z,992.75
2018-11-26T12:13:53.697Z,992.74
2018-11-26T12:14:53.670Z,992.74
2018-11-26T12:15:53.654Z,992.71
2018-11-26T12:16:53.645Z,992.79
2018-11-26T12:17:53.678Z,992.78
2018-11-26T12:18:53.625Z,992.76
2018-11-26T12:19:53.636Z,992.80
2018-11-26T12:20:53.597Z,992.74
2018-11-26T12:21:53.613Z,992.77
2018-11-26T12:22:53.582Z,992.82
2018-11-26T12:23:53.568Z,992.78
2018-11-26T12:24:53.586Z,992.76
2018-11-26T12:25:53.550Z,992.79
2018-11-26T12:26:53.552Z,992.73
2018-11-26T12:27:53.551Z,992.73
2018-11-26T12:28:53.510Z,992.73
2018-11-26T12:29:53.500Z,992.70
2018-11-26T12:30:53.497Z,992.68
2018-11-26T12:31:53.500Z,992.73